createdAt,value
2022-08-07T00:00:03.640Z,59
2022-08-07T00:04:55.399Z,59
2022-08-07T00:10:26.684Z,59
2022-08-07T00:14:55.041Z,60
2022-08-07T00:20:03.682Z,61
2022-08-07T00:24:53.292Z,62
2022-08-07T00:30:01.473Z,63
2022-08-07T00:34:51.420Z,63
2022-08-07T00:39:55.297Z,63
2022-08-07T00:44:48.513Z,63
2022-08-07T00:50:50.294Z,65
2022-08-07T00:54:54.381Z,65
2022-08-07T00:59:12.036Z,65
2022-08-07T01:04:11.340Z,65
2022-08-07T01:10:05.610Z,65
2022-08-07T01:14:17.289Z,65
2022-08-07T01:19:19.638Z,65
2022-08-07T01:24:22.508Z,65
2022-08-07T01:29:15.261Z,66
2022-08-07T01:34:14.486Z,67
2022-08-07T01:39:14.451Z,67
2022-08-07T01:44:13.727Z,67
2022-08-07T01:49:16.030Z,67
2022-08-07T01:54:36.726Z,67
2022-08-07T01:58:50.923Z,67
2022-08-07T02:03:51.996Z,67
2022-08-07T02:08:54.995Z,67
2022-08-07T02:13:59.729Z,67
2022-08-07T02:18:48.286Z,67
2022-08-07T02:23:46.766Z,67
2022-08-07T02:28:45.618Z,68
2022-08-07T02:34:11.370Z,68
2022-08-07T02:38:57.266Z,68
2022-08-07T02:43:48.868Z,68
2022-08-07T02:48:55.518Z,68
2022-08-07T02:53:43.293Z,69
2022-08-07T02:58:48.240Z,69
2022-08-07T03:00:12.563Z,69
2022-08-07T03:05:07.279Z,70
2022-08-07T03:10:33.269Z,70
2022-08-07T03:15:07.408Z,71
2022-08-07T03:20:00.493Z,71
2022-08-07T03:25:00.995Z,71
2022-08-07T03:30:00.100Z,71
2022-08-07T03:35:18.700Z,71
2022-08-07T03:40:16.821Z,71
2022-08-07T03:44:58.769Z,71
2022-08-07T03:49:54.785Z,72
2022-08-07T03:54:59.131Z,73
2022-08-07T03:59:15.972Z,73
2022-08-07T04:04:18.315Z,74
2022-08-07T04:09:16.624Z,74
2022-08-07T04:14:46.442Z,75
2022-08-07T04:19:15.881Z,75
2022-08-07T04:24:34.372Z,75
2022-08-07T04:29:16.839Z,76
2022-08-07T04:34:24.352Z,76
2022-08-07T04:39:20.928Z,76
2022-08-07T04:44:19.663Z,76
2022-08-07T04:49:24.500Z,76
2022-08-07T04:54:15.110Z,75
2022-08-07T04:59:24.214Z,75
2022-08-07T05:04:08.980Z,75
2022-08-07T05:09:02.667Z,74
2022-08-07T05:15:01.206Z,74
2022-08-07T05:18:51.989Z,74
2022-08-07T05:23:51.424Z,72
2022-08-07T05:28:52.046Z,71
2022-08-07T05:34:05.026Z,70
2022-08-07T05:40:06.222Z,69
2022-08-07T05:44:12.465Z,68
2022-08-07T05:48:59.897Z,67
2022-08-07T05:54:44.697Z,65
2022-08-07T05:58:53.190Z,63
2022-08-07T06:04:00.959Z,62
2022-08-07T06:08:47.382Z,59
2022-08-07T06:14:21.106Z,58
2022-08-07T06:18:56.457Z,56
2022-08-07T06:24:52.587Z,56
2022-08-07T06:28:43.911Z,56
2022-08-07T06:33:43.690Z,55
2022-08-07T06:40:14.171Z,54
2022-08-07T06:43:59.303Z,54
2022-08-07T06:48:44.901Z,53
2022-08-07T06:55:47.732Z,53
2022-08-07T07:00:16.814Z,53
2022-08-07T07:03:55.015Z,52
2022-08-07T07:08:47.373Z,52
2022-08-07T07:14:01.844Z,52
2022-08-07T07:18:48.909Z,52
2022-08-07T07:24:12.733Z,52
2022-08-07T07:29:57.406Z,52
2022-08-07T07:33:36.210Z,51
2022-08-07T07:38:36.916Z,49
2022-08-07T07:44:17.763Z,49
2022-08-07T07:48:36.647Z,48
2022-08-07T07:53:35.781Z,47
2022-08-07T07:58:41.478Z,47
2022-08-07T07:59:59.188Z,47
2022-08-07T08:04:55.492Z,47
2022-08-07T08:10:05.970Z,46
2022-08-07T08:14:53.666Z,45
2022-08-07T08:20:26.317Z,45
2022-08-07T08:25:04.907Z,45
2022-08-07T08:29:56.272Z,44
2022-08-07T08:34:50.707Z,44
2022-08-07T08:39:59.130Z,44
2022-08-07T08:44:47.454Z,44
2022-08-07T08:50:05.925Z,43
2022-08-07T08:54:46.790Z,42
2022-08-07T08:59:16.842Z,41
2022-08-07T09:04:14.108Z,41
2022-08-07T09:09:23.857Z,41
2022-08-07T09:14:10.771Z,41
2022-08-07T09:19:55.125Z,41
2022-08-07T09:24:59.505Z,41
2022-08-07T09:30:08.928Z,39
2022-08-07T09:34:16.514Z,38
2022-08-07T09:39:56.164Z,39
2022-08-07T09:44:45.298Z,38
2022-08-07T09:50:18.771Z,37
2022-08-07T09:54:17.092Z,34
2022-08-07T09:58:53.672Z,35
2022-08-07T10:04:14.508Z,31
2022-08-07T10:08:52.971Z,31
2022-08-07T10:14:02.830Z,30
2022-08-07T10:18:53.356Z,31
2022-08-07T10:24:08.334Z,31
2022-08-07T10:28:50.779Z,31
2022-08-07T10:34:17.825Z,31
2022-08-07T10:38:51.086Z,31
2022-08-07T10:43:47.308Z,30
2022-08-07T10:48:47.801Z,30
2022-08-07T10:53:46.422Z,30
2022-08-07T10:58:47.400Z,30
2022-08-07T11:04:16.889Z,30
2022-08-07T11:08:44.314Z,30
2022-08-07T11:15:00.485Z,29
2022-08-07T11:18:42.086Z,29
2022-08-07T11:23:40.966Z,29
2022-08-07T11:28:40.033Z,28
2022-08-07T11:34:00.928Z,28
2022-08-07T11:38:57.083Z,27
2022-08-07T11:44:12.867Z,27
2022-08-07T11:48:38.403Z,27
2022-08-07T11:53:37.641Z,27
2022-08-07T11:58:38.996Z,26
2022-08-07T12:03:46.455Z,27
2022-08-07T12:08:35.707Z,26
2022-08-07T12:13:37.343Z,26
2022-08-07T12:18:33.459Z,26
2022-08-07T12:24:12.378Z,26
2022-08-07T12:28:32.343Z,25
2022-08-07T12:34:04.025Z,25
2022-08-07T12:38:43.172Z,25
2022-08-07T12:44:05.653Z,24
2022-08-07T12:48:53.303Z,25
2022-08-07T12:53:28.518Z,25
2022-08-07T12:58:35.817Z,24
2022-08-07T12:59:56.056Z,24
2022-08-07T13:05:02.412Z,24
2022-08-07T13:10:42.425Z,24
2022-08-07T13:14:52.067Z,25
2022-08-07T13:19:52.794Z,25
2022-08-07T13:24:54.953Z,25
2022-08-07T13:29:48.657Z,25
2022-08-07T13:34:50.893Z,24
2022-08-07T13:40:42.053Z,24
2022-08-07T13:44:43.294Z,23
2022-08-07T13:50:44.262Z,23
2022-08-07T13:54:49.964Z,24
2022-08-07T13:59:13.210Z,24
2022-08-07T14:04:22.104Z,23
2022-08-07T14:10:01.116Z,23
2022-08-07T14:14:16.138Z,24
2022-08-07T14:20:48.744Z,23
2022-08-07T14:24:28.734Z,23
2022-08-07T14:30:11.474Z,22
2022-08-07T14:34:25.848Z,22
2022-08-07T14:40:26.800Z,23
2022-08-07T14:44:16.397Z,23
2022-08-07T15:52:13.973Z,24
2022-08-07T15:52:31.191Z,23
2022-08-07T15:53:21.742Z,24
2022-08-07T15:58:39.477Z,24
2022-08-07T16:00:06.890Z,23
2022-08-07T16:05:01.693Z,24
2022-08-07T16:10:03.363Z,23
2022-08-07T16:15:00.122Z,23
2022-08-07T16:20:00.927Z,24
2022-08-07T16:24:56.510Z,24
2022-08-07T16:30:32.423Z,24
2022-08-07T16:34:55.994Z,24
2022-08-07T16:39:54.385Z,24
2022-08-07T16:45:19.228Z,24
2022-08-07T16:50:48.339Z,24
2022-08-07T17:54:40.337Z,25
2022-08-07T17:58:57.455Z,25
2022-08-07T18:04:16.082Z,25
2022-08-07T18:09:08.585Z,26
2022-08-07T18:14:02.225Z,26
2022-08-07T18:21:42.555Z,26
2022-08-07T18:23:58.979Z,27
2022-08-07T18:28:59.473Z,27
2022-08-07T18:33:56.587Z,28
2022-08-07T18:39:01.413Z,29
2022-08-07T18:43:50.105Z,29
2022-08-07T18:50:39.402Z,30
2022-08-07T18:53:55.675Z,31
2022-08-07T19:03:52.751Z,32
2022-08-07T19:08:47.897Z,32
2022-08-07T19:13:43.901Z,33
2022-08-07T19:18:46.325Z,34
2022-08-07T19:24:00.090Z,35
2022-08-07T19:31:33.672Z,37
2022-08-07T19:33:43.468Z,37
2022-08-07T19:38:54.089Z,38
2022-08-07T19:43:50.462Z,38
2022-08-07T19:48:44.523Z,39
2022-08-07T19:54:56.020Z,39
2022-08-07T19:58:35.070Z,41
2022-08-07T20:03:37.065Z,41
2022-08-07T20:08:33.978Z,42
2022-08-07T20:13:33.132Z,44
2022-08-07T20:18:35.419Z,44
2022-08-07T20:23:48.558Z,44
2022-08-07T20:28:31.047Z,46
2022-08-07T20:33:38.740Z,46
2022-08-07T20:38:28.946Z,46
2022-08-07T20:43:28.314Z,46
2022-08-07T20:48:30.865Z,46
2022-08-07T20:54:07.138Z,47
2022-08-07T20:58:29.277Z,47
2022-08-07T21:00:09.858Z,47
2022-08-07T21:04:46.919Z,47
2022-08-07T21:10:00.778Z,48
2022-08-07T21:14:54.274Z,48
2022-08-07T21:20:01.137Z,48
2022-08-07T21:24:49.018Z,48
2022-08-07T21:29:53.638Z,48
2022-08-07T21:34:49.079Z,48
2022-08-07T21:39:51.434Z,48
2022-08-07T21:44:41.675Z,48
2022-08-07T21:50:03.466Z,49
2022-08-07T21:54:48.399Z,49
2022-08-07T21:59:14.874Z,49
2022-08-07T22:04:12.468Z,49
2022-08-07T22:09:11.745Z,51
2022-08-07T22:14:34.665Z,51
2022-08-07T22:19:11.344Z,52
2022-08-07T22:24:09.988Z,52
2022-08-07T22:29:14.700Z,54
2022-08-07T22:34:16.090Z,54
2022-08-07T22:39:16.150Z,54
2022-08-07T22:44:19.217Z,54
2022-08-07T22:49:16.733Z,55
2022-08-07T22:54:16.712Z,56
2022-08-07T22:58:52.722Z,56
2022-08-07T23:04:00.102Z,57
2022-08-07T23:09:01.790Z,57
2022-08-07T23:14:16.855Z,57
2022-08-07T23:18:49.350Z,58
2022-08-07T23:24:11.728Z,58
2022-08-07T23:28:56.333Z,58
2022-08-07T23:34:36.999Z,59
2022-08-07T23:38:55.099Z,59
2022-08-07T23:43:52.835Z,60
2022-08-07T23:48:47.626Z,61
2022-08-07T23:53:53.531Z,61
2022-08-07T23:58:43.495Z,61
